Terminal Aerodrome Forecast
Issued by NWS

Home | Current Version | Previous Version | Text Only | Print | Product List | Glossary On
Versions: 1 2 3 4 5 6 7 8 9 10 11 12 13
881
FTUS45 KABQ 230533
TAFTCC
TAF
KTCC 230533Z 2306/2406 13005KT P6SM VCSH BKN100
     FM230800 03013KT P6SM SCT120
     FM231700 05022G32KT P6SM BKN050
     FM240300 07009KT P6SM BKN035=

USA.gov is the U.S. government's official web portal to all federal, state and local government web resources and services.